createdAt,value
2022-11-28T00:01:47.871Z,101341.47
2022-11-28T00:04:16.570Z,101339.47
2022-11-28T00:06:49.604Z,101333.34
2022-11-28T00:09:19.854Z,101343.41
2022-11-28T00:11:50.846Z,101345.53
2022-11-28T00:14:22.070Z,101343.44
2022-11-28T00:16:50.953Z,101350.72
2022-11-28T00:19:19.401Z,101357.72
2022-11-28T00:21:47.804Z,101339.09
2022-11-28T00:24:16.279Z,101350.00
2022-11-28T00:26:44.684Z,101342.63
2022-11-28T00:29:14.588Z,101336.09
2022-11-28T00:31:44.133Z,101334.00
2022-11-28T00:34:15.290Z,101335.38
2022-11-28T00:36:46.029Z,101336.22
2022-11-28T00:39:16.067Z,101338.06
2022-11-28T00:41:46.029Z,101332.22
2022-11-28T00:44:16.774Z,101325.28
2022-11-28T00:46:45.241Z,101327.56
2022-11-28T00:49:13.465Z,101347.69
2022-11-28T00:51:42.037Z,101348.50
2022-11-28T00:54:10.214Z,101348.56
2022-11-28T00:56:40.704Z,101351.63
2022-11-28T00:59:09.429Z,101351.97
2022-11-28T01:01:41.542Z,101349.97
2022-11-28T01:04:12.931Z,101359.31
2022-11-28T01:06:44.322Z,101336.28
2022-11-28T01:09:16.558Z,101355.69
2022-11-28T01:11:45.981Z,101368.50
2022-11-28T01:14:14.973Z,101351.94
2022-11-28T01:16:44.949Z,101339.59
2022-11-28T01:19:14.048Z,101349.47
2022-11-28T01:21:42.915Z,101359.25
2022-11-28T01:24:11.987Z,101351.75
2022-11-28T01:26:42.882Z,101357.72
2022-11-28T01:29:12.541Z,101363.56
2022-11-28T01:31:41.558Z,101364.25
2022-11-28T01:34:11.398Z,101365.84
2022-11-28T01:36:39.874Z,101369.91
2022-11-28T01:39:08.531Z,101363.63
2022-11-28T01:41:37.035Z,101369.22
2022-11-28T01:44:07.856Z,101364.91
2022-11-28T01:46:37.656Z,101374.66
2022-11-28T01:49:13.322Z,101359.28
2022-11-28T01:51:46.101Z,101362.97
2022-11-28T01:54:16.032Z,101350.19
2022-11-28T01:56:51.366Z,101369.59
2022-11-28T01:59:23.115Z,101359.25
2022-11-28T02:01:51.645Z,101352.09
2022-11-28T02:04:21.649Z,101360.09
2022-11-28T02:06:50.159Z,101347.09
2022-11-28T02:09:18.349Z,101348.91
2022-11-28T02:12:18.397Z,101368.59
2022-11-28T02:15:15.306Z,101379.22
2022-11-28T02:17:55.398Z,101370.69
2022-11-28T02:20:57.833Z,101352.63
2022-11-28T02:23:35.318Z,101369.88
2022-11-28T02:26:33.633Z,101373.94
2022-11-28T02:29:41.276Z,101379.50
2022-11-28T02:32:23.318Z,101377.69
2022-11-28T02:34:58.630Z,101392.59
2022-11-28T02:37:32.131Z,101391.19
2022-11-28T02:40:09.950Z,101379.91
2022-11-28T02:42:51.921Z,101393.41
2022-11-28T02:45:28.911Z,101394.94
2022-11-28T02:48:04.984Z,101401.69
2022-11-28T02:50:40.844Z,101416.88
2022-11-28T02:53:14.938Z,101398.75
2022-11-28T02:55:45.693Z,101392.19
2022-11-28T02:58:14.467Z,101405.31
2022-11-28T03:00:44.993Z,101415.91
2022-11-28T03:03:46.289Z,101394.03
2022-11-28T03:06:30.150Z,101399.09
2022-11-28T03:09:17.072Z,101409.38
2022-11-28T03:11:57.467Z,101395.69
2022-11-28T03:14:35.453Z,101415.13
2022-11-28T03:17:13.108Z,101402.78
2022-11-28T03:19:50.512Z,101419.25
2022-11-28T03:22:28.569Z,101403.56
2022-11-28T03:25:04.087Z,101402.34
2022-11-28T03:27:37.927Z,101411.28
2022-11-28T03:30:13.713Z,101409.31
2022-11-28T03:32:44.303Z,101419.75
2022-11-28T03:35:18.403Z,101406.78
2022-11-28T03:37:52.673Z,101414.44
2022-11-28T03:40:26.150Z,101416.16
2022-11-28T03:42:59.738Z,101416.97
2022-11-28T03:45:33.107Z,101407.63
2022-11-28T03:48:06.266Z,101415.91
2022-11-28T03:50:42.709Z,101421.28
2022-11-28T03:53:17.052Z,101419.28
2022-11-28T03:55:50.560Z,101412.66
2022-11-28T03:58:26.655Z,101418.41
2022-11-28T04:01:04.318Z,101425.94
2022-11-28T04:03:42.286Z,101431.28
2022-11-28T04:06:18.249Z,101422.63
2022-11-28T04:08:54.166Z,101428.59
2022-11-28T04:11:29.156Z,101427.69
2022-11-28T04:14:03.062Z,101434.56
2022-11-28T04:16:37.272Z,101439.13
2022-11-28T04:19:14.395Z,101447.34
2022-11-28T04:21:52.114Z,101441.09
2022-11-28T04:24:25.147Z,101443.47
2022-11-28T04:26:59.813Z,101443.66
2022-11-28T04:29:34.012Z,101432.56
2022-11-28T04:32:04.928Z,101436.72
2022-11-28T04:34:38.332Z,101432.53
2022-11-28T04:37:10.651Z,101434.78
2022-11-28T04:39:42.155Z,101431.38
2022-11-28T04:42:14.674Z,101438.25
2022-11-28T04:44:48.833Z,101430.50
2022-11-28T04:47:18.081Z,101435.59
2022-11-28T04:49:49.853Z,101444.66
2022-11-28T04:52:26.624Z,101434.28
2022-11-28T04:55:00.903Z,101444.06
2022-11-28T04:57:34.421Z,101438.88
2022-11-28T05:00:05.745Z,101446.78
2022-11-28T05:02:35.800Z,101441.16
2022-11-28T05:05:10.798Z,101454.56
2022-11-28T05:07:40.779Z,101450.88
2022-11-28T05:10:10.165Z,101453.22
2022-11-28T05:12:38.765Z,101452.78
2022-11-28T05:15:08.140Z,101468.75
2022-11-28T05:17:41.963Z,101463.19
2022-11-28T05:20:14.860Z,101467.31
2022-11-28T05:22:54.002Z,101471.69
2022-11-28T05:25:26.041Z,101473.41
2022-11-28T05:27:56.652Z,101470.31
2022-11-28T05:30:25.334Z,101473.84
2022-11-28T05:32:53.527Z,101467.09
2022-11-28T05:35:23.525Z,101482.09
2022-11-28T05:37:56.586Z,101487.09
2022-11-28T05:40:25.271Z,101491.94
2022-11-28T05:42:54.443Z,101490.94
2022-11-28T05:45:23.034Z,101493.03
2022-11-28T05:47:51.151Z,101507.94
2022-11-28T05:50:22.135Z,101491.03
2022-11-28T05:52:50.554Z,101498.22
2022-11-28T05:55:25.268Z,101496.19
2022-11-28T05:57:56.298Z,101497.03
2022-11-28T06:00:31.356Z,101502.84
2022-11-28T06:03:01.771Z,101503.41
2022-11-28T06:05:42.176Z,101498.25
2022-11-28T06:08:13.445Z,101503.94
2022-11-28T06:10:43.412Z,101514.06
2022-11-28T06:13:11.884Z,101498.66
2022-11-28T06:15:43.804Z,101511.16
2022-11-28T06:18:27.234Z,101507.72
2022-11-28T06:20:55.643Z,101504.97
2022-11-28T06:23:24.465Z,101513.25
2022-11-28T06:25:54.362Z,101522.56
2022-11-28T06:28:23.129Z,101519.25
2022-11-28T06:30:51.671Z,101514.63
2022-11-28T06:33:22.569Z,101515.31
2022-11-28T06:35:51.008Z,101526.19
2022-11-28T06:38:19.459Z,101532.06
2022-11-28T06:40:47.662Z,101522.41
2022-11-28T06:43:17.640Z,101528.19
2022-11-28T06:45:46.267Z,101527.22
2022-11-28T06:48:14.445Z,101527.44
2022-11-28T06:50:42.973Z,101527.31
2022-11-28T06:53:11.135Z,101531.84
2022-11-28T06:55:39.582Z,101523.59
2022-11-28T06:58:07.766Z,101520.16
2022-11-28T07:00:38.281Z,101531.94
2022-11-28T07:03:06.910Z,101522.47
2022-11-28T07:05:35.848Z,101535.09
2022-11-28T07:08:04.331Z,101525.19
2022-11-28T07:10:32.602Z,101534.25
2022-11-28T07:13:05.409Z,101522.81
2022-11-28T07:15:34.270Z,101533.50
2022-11-28T07:18:04.086Z,101525.50
2022-11-28T07:20:32.577Z,101537.38
2022-11-28T07:23:00.705Z,101535.78
2022-11-28T07:25:29.213Z,101541.69
2022-11-28T07:27:57.401Z,101537.22
2022-11-28T07:30:25.788Z,101532.56
2022-11-28T07:32:54.157Z,101530.41
2022-11-28T07:35:24.042Z,101524.47
2022-11-28T07:37:52.788Z,101530.53
2022-11-28T07:40:22.972Z,101535.22
2022-11-28T07:42:51.895Z,101539.56
2022-11-28T07:45:20.276Z,101533.56
2022-11-28T07:47:48.692Z,101539.91
2022-11-28T07:50:17.309Z,101544.44
2022-11-28T07:52:49.971Z,101538.09
2022-11-28T07:55:18.599Z,101552.09
2022-11-28T07:57:46.709Z,101553.47
2022-11-28T08:00:17.555Z,101541.78
2022-11-28T08:02:55.139Z,101548.59
2022-11-28T08:05:27.710Z,101556.28
2022-11-28T08:08:02.933Z,101523.00
2022-11-28T08:10:39.494Z,101554.38
2022-11-28T08:13:09.529Z,101551.59
2022-11-28T08:15:37.984Z,101563.59
2022-11-28T08:18:06.375Z,101563.47
2022-11-28T08:20:34.712Z,101563.06
2022-11-28T08:23:04.240Z,101557.31
2022-11-28T08:25:32.802Z,101565.47
2022-11-28T08:28:00.864Z,101562.81
2022-11-28T08:30:29.516Z,101561.78
2022-11-28T08:32:58.064Z,101570.88
2022-11-28T08:35:26.262Z,101557.47
2022-11-28T08:37:57.705Z,101579.53
2022-11-28T08:40:31.553Z,101579.31
2022-11-28T08:43:00.218Z,101576.44
2022-11-28T08:45:28.761Z,101568.13
2022-11-28T08:47:57.291Z,101579.94
2022-11-28T08:50:27.575Z,101563.56
2022-11-28T08:53:01.782Z,101571.38
2022-11-28T08:55:41.719Z,101575.22
2022-11-28T08:58:10.621Z,101566.63
2022-11-28T09:00:38.752Z,101582.34
2022-11-28T09:03:12.859Z,101574.50
2022-11-28T09:08:30.482Z,101583.84
2022-11-28T09:11:00.055Z,101582.19
2022-11-28T09:13:28.513Z,101576.34
2022-11-28T09:15:57.417Z,101579.47
2022-11-28T09:18:27.461Z,101583.75
2022-11-28T09:20:59.543Z,101576.06
2022-11-28T09:23:28.216Z,101565.78
2022-11-28T09:25:56.720Z,101581.16
2022-11-28T09:28:28.946Z,101576.13
2022-11-28T09:31:02.658Z,101579.94
2022-11-28T09:33:31.839Z,101574.63
2022-11-28T09:36:00.596Z,101568.81
2022-11-28T09:38:29.279Z,101575.56
2022-11-28T09:40:57.757Z,101570.34
2022-11-28T09:43:32.605Z,101569.25
2022-11-28T09:46:06.273Z,101570.09
2022-11-28T09:48:38.060Z,101581.63
2022-11-28T09:51:20.109Z,101586.69
2022-11-28T09:54:01.580Z,101589.06
2022-11-28T09:56:30.172Z,101583.41
2022-11-28T09:59:03.216Z,101592.50
2022-11-28T10:01:39.359Z,101580.38
2022-11-28T10:04:14.291Z,101585.47
2022-11-28T10:06:51.548Z,101594.34
2022-11-28T10:09:34.950Z,101594.53
2022-11-28T10:12:21.846Z,101595.75
2022-11-28T10:15:15.762Z,101591.19
2022-11-28T10:17:51.279Z,101595.09
2022-11-28T10:20:24.149Z,101591.81
2022-11-28T10:22:56.846Z,101579.50
2022-11-28T10:25:30.425Z,101593.22
2022-11-28T10:27:59.783Z,101589.81
2022-11-28T10:30:35.115Z,101587.53
2022-11-28T10:33:11.233Z,101584.63
2022-11-28T10:35:46.181Z,101589.50
2022-11-28T10:38:16.410Z,101578.84
2022-11-28T10:40:51.255Z,101583.22
2022-11-28T10:43:34.161Z,101571.00
2022-11-28T10:46:21.282Z,101588.47
2022-11-28T10:48:55.942Z,101576.53
2022-11-28T10:51:36.312Z,101585.44
2022-11-28T10:54:19.747Z,101587.97
2022-11-28T10:56:58.368Z,101577.56
2022-11-28T10:59:42.413Z,101579.56
2022-11-28T11:02:22.490Z,101579.47
2022-11-28T11:04:51.205Z,101579.09
2022-11-28T11:07:29.523Z,101579.38
2022-11-28T11:10:03.836Z,101570.34
2022-11-28T11:12:34.971Z,101586.50
2022-11-28T11:15:17.736Z,101584.00
2022-11-28T11:17:50.358Z,101565.59
2022-11-28T11:20:38.020Z,101573.31
2022-11-28T11:23:14.937Z,101570.22
2022-11-28T11:25:50.339Z,101574.28
2022-11-28T11:28:41.648Z,101575.06
2022-11-28T11:31:20.464Z,101586.00
2022-11-28T11:33:53.254Z,101580.34
2022-11-28T11:36:31.861Z,101581.00
2022-11-28T11:39:21.240Z,101573.25
2022-11-28T11:41:51.958Z,101596.72
2022-11-28T11:44:29.977Z,101568.28
2022-11-28T11:47:00.875Z,101597.13
2022-11-28T11:49:33.877Z,101588.38
2022-11-28T11:52:07.586Z,101578.69
2022-11-28T11:54:36.084Z,101583.13
2022-11-28T11:57:31.848Z,101594.97
2022-11-28T11:59:57.236Z,101587.16
2022-11-28T12:02:32.700Z,101596.22
2022-11-28T12:05:12.745Z,101601.66
2022-11-28T12:07:51.746Z,101595.03
2022-11-28T12:10:23.882Z,101600.78
2022-11-28T12:12:52.449Z,101596.22
2022-11-28T12:15:24.187Z,101592.59
2022-11-28T12:18:06.571Z,101602.13
2022-11-28T12:20:56.607Z,101601.41
2022-11-28T12:23:54.064Z,101607.69
2022-11-28T12:26:27.806Z,101614.78
2022-11-28T12:29:12.912Z,101610.34
2022-11-28T12:31:49.705Z,101614.59
2022-11-28T12:34:27.110Z,101604.84
2022-11-28T12:37:07.884Z,101611.38
2022-11-28T12:39:52.862Z,101616.25
2022-11-28T12:42:35.834Z,101624.75
2022-11-28T12:45:30.842Z,101634.59
2022-11-28T12:48:09.492Z,101627.13
2022-11-28T12:50:40.822Z,101625.88
2022-11-28T12:53:32.498Z,101624.16
2022-11-28T12:56:09.663Z,101635.41
2022-11-28T12:58:45.393Z,101635.91
2022-11-28T13:01:33.665Z,101646.34
2022-11-28T13:04:13.090Z,101638.09
2022-11-28T13:06:50.611Z,101636.38
2022-11-28T13:09:31.336Z,101625.09
2022-11-28T13:12:21.611Z,101637.03
2022-11-28T13:14:54.986Z,101637.66
2022-11-28T13:17:38.126Z,101629.06
2022-11-28T13:20:19.903Z,101632.47
2022-11-28T13:23:04.162Z,101642.84
2022-11-28T13:25:42.939Z,101637.38
2022-11-28T13:28:19.509Z,101634.97
2022-11-28T13:30:53.109Z,101641.69
2022-11-28T13:33:45.184Z,101648.88
2022-11-28T13:39:14.734Z,101630.09
2022-11-28T13:44:46.846Z,101637.50
2022-11-28T13:47:27.943Z,101635.84
2022-11-28T13:50:38.042Z,101642.72
2022-11-28T13:53:22.833Z,101645.38
2022-11-28T13:55:53.106Z,101645.97
2022-11-28T13:58:26.132Z,101655.34
2022-11-28T14:01:15.741Z,101650.91
2022-11-28T14:03:49.269Z,101657.81
2022-11-28T14:06:21.378Z,101649.81
2022-11-28T14:09:06.330Z,101651.25
2022-11-28T14:11:52.956Z,101664.72
2022-11-28T14:14:42.680Z,101635.63
2022-11-28T14:17:43.242Z,101665.50
2022-11-28T14:20:24.451Z,101653.03
2022-11-28T14:23:08.151Z,101670.28
2022-11-28T14:25:42.867Z,101663.91
2022-11-28T14:28:21.752Z,101660.41
2022-11-28T14:30:53.498Z,101670.69
2022-11-28T14:33:25.594Z,101677.91
2022-11-28T14:36:34.239Z,101673.88
2022-11-28T14:43:29.810Z,101680.31
2022-11-28T14:46:26.015Z,101683.34
2022-11-28T14:49:23.155Z,101676.31
2022-11-28T14:52:40.568Z,101677.91
2022-11-28T14:55:22.825Z,101696.53
2022-11-28T14:57:59.612Z,101678.25
2022-11-28T15:00:33.198Z,101683.69
2022-11-28T15:03:18.061Z,101668.56
2022-11-28T15:05:49.292Z,101677.00
2022-11-28T15:08:49.436Z,101661.34
2022-11-28T15:11:40.641Z,101676.41
2022-11-28T15:14:12.275Z,101675.56
2022-11-28T15:16:49.845Z,101668.06
2022-11-28T15:19:26.783Z,101665.16
2022-11-28T15:21:57.007Z,101656.69
2022-11-28T15:24:31.220Z,101661.63
2022-11-28T15:27:18.070Z,101664.78
2022-11-28T15:29:55.219Z,101664.13
2022-11-28T15:32:24.945Z,101660.91
2022-11-28T15:34:59.865Z,101669.84
2022-11-28T15:37:32.579Z,101663.50
2022-11-28T15:40:04.347Z,101664.78
2022-11-28T15:42:34.786Z,101672.41
2022-11-28T15:45:10.354Z,101661.94
2022-11-28T15:47:39.844Z,101683.88
2022-11-28T15:50:19.736Z,101682.22
2022-11-28T15:52:56.514Z,101681.22
2022-11-28T15:55:26.041Z,101673.22
2022-11-28T15:58:14.961Z,101669.72
2022-11-28T16:00:46.681Z,101662.81
2022-11-28T16:03:17.496Z,101664.25
2022-11-28T16:05:49.940Z,101662.19
2022-11-28T16:08:25.593Z,101664.28
2022-11-28T16:10:54.279Z,101674.06
2022-11-28T16:13:25.018Z,101667.72
2022-11-28T16:15:58.517Z,101669.53
2022-11-28T16:18:29.158Z,101674.53
2022-11-28T16:21:01.328Z,101676.59
2022-11-28T16:23:34.318Z,101669.59
2022-11-28T16:26:05.104Z,101674.47
2022-11-28T16:28:37.109Z,101673.22
2022-11-28T16:31:12.326Z,101677.28
2022-11-28T16:33:42.279Z,101681.56
2022-11-28T16:36:19.531Z,101682.44
2022-11-28T16:38:50.370Z,101684.47
2022-11-28T16:41:21.547Z,101674.78
2022-11-28T16:43:53.937Z,101675.03
2022-11-28T16:46:25.044Z,101672.13
2022-11-28T16:48:57.619Z,101667.78
2022-11-28T16:51:33.929Z,101675.53
2022-11-28T16:54:24.473Z,101676.75
2022-11-28T16:56:57.818Z,101675.16
2022-11-28T16:59:28.374Z,101679.69
2022-11-28T17:01:57.430Z,101668.91
2022-11-28T17:04:28.113Z,101679.13
2022-11-28T17:07:01.887Z,101678.16
2022-11-28T17:09:30.614Z,101668.09
2022-11-28T17:12:04.341Z,101674.78
2022-11-28T17:14:37.688Z,101682.19
2022-11-28T17:17:13.276Z,101687.66
2022-11-28T17:19:42.340Z,101684.44
2022-11-28T17:22:15.711Z,101680.41
2022-11-28T17:24:44.964Z,101687.31
2022-11-28T17:27:17.376Z,101687.47
2022-11-28T17:29:46.180Z,101692.84
2022-11-28T17:32:16.195Z,101702.88
2022-11-28T17:34:46.224Z,101697.16
2022-11-28T17:37:17.693Z,101698.50
2022-11-28T17:40:06.321Z,101705.44
2022-11-28T17:42:34.841Z,101699.56
2022-11-28T17:45:03.643Z,101698.38
2022-11-28T17:47:32.395Z,101691.50
2022-11-28T17:50:00.630Z,101696.06
2022-11-28T17:52:32.657Z,101691.72
2022-11-28T17:55:06.845Z,101696.28
2022-11-28T17:57:37.173Z,101706.00
2022-11-28T18:00:07.764Z,101700.56
2022-11-28T18:02:42.784Z,101704.47
2022-11-28T18:05:11.692Z,101699.69
2022-11-28T18:07:42.989Z,101703.31
2022-11-28T18:10:13.494Z,101698.38
2022-11-28T18:12:42.642Z,101686.72
2022-11-28T18:15:11.535Z,101691.69
2022-11-28T18:17:40.217Z,101699.72
2022-11-28T18:20:12.699Z,101704.91
2022-11-28T18:22:42.637Z,101696.97
2022-11-28T18:25:11.829Z,101702.31
2022-11-28T18:27:42.442Z,101697.22
2022-11-28T18:30:13.619Z,101696.47
2022-11-28T18:32:42.739Z,101688.81
2022-11-28T18:35:14.347Z,101692.97
2022-11-28T18:37:44.303Z,101702.06
2022-11-28T18:40:13.663Z,101706.94
2022-11-28T18:42:44.660Z,101699.56
2022-11-28T18:45:13.926Z,101693.63
2022-11-28T18:47:42.694Z,101709.34
2022-11-28T18:50:11.988Z,101712.63
2022-11-28T18:52:43.371Z,101717.78
2022-11-28T18:55:12.064Z,101714.03
2022-11-28T18:57:41.596Z,101719.25
2022-11-28T19:00:11.492Z,101706.09
2022-11-28T19:02:43.581Z,101709.94
2022-11-28T19:05:12.166Z,101705.16
2022-11-28T19:07:40.900Z,101709.69
2022-11-28T19:10:12.869Z,101703.41
2022-11-28T19:12:42.036Z,101714.28
2022-11-28T19:15:19.315Z,101710.50
2022-11-28T19:17:47.917Z,101718.31
2022-11-28T19:20:16.919Z,101705.28
2022-11-28T19:22:46.507Z,101715.69
2022-11-28T19:25:16.165Z,101713.84
2022-11-28T19:27:44.701Z,101717.31
2022-11-28T19:30:14.532Z,101711.47
2022-11-28T19:32:43.001Z,101711.81
2022-11-28T19:35:11.204Z,101712.34
2022-11-28T19:37:39.653Z,101720.13
2022-11-28T19:40:09.884Z,101697.25
2022-11-28T19:42:39.963Z,101717.94
2022-11-28T19:45:09.921Z,101726.16
2022-11-28T19:47:38.580Z,101726.94
2022-11-28T19:50:07.569Z,101721.00
2022-11-28T19:52:36.122Z,101724.75
2022-11-28T19:55:04.786Z,101720.25
2022-11-28T19:57:36.472Z,101725.41
2022-11-28T20:00:07.755Z,101733.56
2022-11-28T20:02:42.728Z,101726.94
2022-11-28T20:05:11.432Z,101731.81
2022-11-28T20:07:39.957Z,101716.41
2022-11-28T20:10:10.302Z,101729.22
2022-11-28T20:12:39.371Z,101717.22
2022-11-28T20:15:15.204Z,101737.94
2022-11-28T20:17:49.621Z,101726.31
2022-11-28T20:20:18.569Z,101741.38
2022-11-28T20:22:47.276Z,101742.41
2022-11-28T20:25:20.602Z,101729.69
2022-11-28T20:27:51.587Z,101742.88
2022-11-28T20:30:21.324Z,101739.81
2022-11-28T20:32:51.361Z,101743.06
2022-11-28T20:35:19.875Z,101734.78
2022-11-28T20:37:48.202Z,101746.84
2022-11-28T20:40:16.840Z,101745.84
2022-11-28T20:42:45.333Z,101748.03
2022-11-28T20:45:13.727Z,101741.63
2022-11-28T20:47:49.530Z,101745.97
2022-11-28T20:50:18.842Z,101734.72
2022-11-28T20:52:47.555Z,101755.63
2022-11-28T20:55:16.230Z,101753.25
2022-11-28T20:57:44.805Z,101748.72
2022-11-28T21:00:13.788Z,101751.69
2022-11-28T21:02:43.878Z,101747.66
2022-11-28T21:05:13.079Z,101754.84
2022-11-28T21:07:41.294Z,101743.78
2022-11-28T21:10:10.358Z,101749.75
2022-11-28T21:12:38.920Z,101745.06
2022-11-28T21:15:07.775Z,101745.25
2022-11-28T21:17:36.213Z,101753.03
2022-11-28T21:20:06.892Z,101748.91
2022-11-28T21:22:35.397Z,101748.66
2022-11-28T21:25:03.675Z,101751.75
2022-11-28T21:27:32.266Z,101756.97
2022-11-28T21:30:00.658Z,101757.16
2022-11-28T21:32:29.146Z,101755.78
2022-11-28T21:35:02.574Z,101763.94
2022-11-28T21:37:34.226Z,101770.44
2022-11-28T21:40:02.739Z,101767.56
2022-11-28T21:42:30.986Z,101762.06
2022-11-28T21:44:59.429Z,101761.47
2022-11-28T21:47:28.163Z,101753.00
2022-11-28T21:49:56.310Z,101749.47
2022-11-28T21:52:24.758Z,101766.47
2022-11-28T21:54:54.651Z,101763.06
2022-11-28T21:57:23.127Z,101756.38
2022-11-28T21:59:51.497Z,101765.72
2022-11-28T22:02:22.172Z,101767.66
2022-11-28T22:04:54.942Z,101769.41
2022-11-28T22:07:23.680Z,101757.03
2022-11-28T22:09:54.337Z,101762.03
2022-11-28T22:12:22.848Z,101754.69
2022-11-28T22:14:51.077Z,101757.22
2022-11-28T22:17:19.559Z,101764.31
2022-11-28T22:19:47.950Z,101766.91
2022-11-28T22:22:16.681Z,101766.81
2022-11-28T22:24:44.988Z,101774.16
2022-11-28T22:27:14.714Z,101779.41
2022-11-28T22:29:43.094Z,101782.50
2022-11-28T22:32:12.022Z,101780.16
2022-11-28T22:34:41.919Z,101774.50
2022-11-28T22:37:13.816Z,101775.16
2022-11-28T22:39:42.322Z,101774.31
2022-11-28T22:42:10.920Z,101760.78
2022-11-28T22:44:40.872Z,101776.16
2022-11-28T22:47:09.843Z,101765.94
2022-11-28T22:49:38.134Z,101779.91
2022-11-28T22:52:06.692Z,101767.97
2022-11-28T22:54:34.819Z,101774.16
2022-11-28T22:57:04.425Z,101771.13
2022-11-28T22:59:35.287Z,101762.63
2022-11-28T23:02:05.793Z,101763.47
2022-11-28T23:04:34.429Z,101759.72
2022-11-28T23:07:04.615Z,101767.63
2022-11-28T23:09:33.249Z,101771.72
2022-11-28T23:12:01.932Z,101772.63
2022-11-28T23:14:31.364Z,101765.88
2022-11-28T23:17:00.176Z,101775.53
2022-11-28T23:19:33.108Z,101780.66
2022-11-28T23:22:01.522Z,101771.41
2022-11-28T23:24:30.803Z,101768.53
2022-11-28T23:27:00.224Z,101766.41
2022-11-28T23:29:30.123Z,101774.25
2022-11-28T23:31:59.340Z,101772.72
2022-11-28T23:34:29.707Z,101771.16
2022-11-28T23:36:59.579Z,101776.28
2022-11-28T23:39:28.652Z,101778.31
2022-11-28T23:42:05.363Z,101773.00
2022-11-28T23:44:33.807Z,101775.19
2022-11-28T23:47:02.207Z,101777.94
2022-11-28T23:49:30.636Z,101770.16
2022-11-28T23:52:00.263Z,101774.66
2022-11-28T23:54:28.729Z,101781.94
2022-11-28T23:56:57.093Z,101781.81
2022-11-28T23:59:25.513Z,101774.41
